Weather at Norfolk International Airport

Public forecast

Using degrees Fahrenheit for public forecast. Weather courtesy of forecast.io.

Current aviation weather report (METAR) for Norfolk International Airport

Retrieved 2020/12/02 17:51 UTC (36 minutes ago):

KORF 021751Z 29008KT 10SM CLR 09/M03 A3014 RMK AO2 SLP205 T00941028 10094 20022 51001

Aviation forecast (TAF) for Norfolk International Airport

Retrieved 2020/12/02 18:30 UTC (0 seconds ago):

TAF KORF 021728Z 0218/0318 27012G18KT P6SM SKC FM022200 25005KT P6SM SKC FM031300 30004KT P6SM SKC